Terminal Aerodrome Forecast
Issued by NWS

Home | Current Version | Previous Version | Text Only | Print | Product List | Glossary On
Versions: 1 2 3 4 5 6 7 8 9 10 11 12 13 14 15 16 17 18 19 20 21 22 23
000
FTUS45 KREV 291120
TAFTVL
TAF
KTVL 291120Z 2912/3012 20015G25KT P6SM SCT180
     FM291700 20018G32KT P6SM SCT040
     FM292200 20014G26KT P6SM BKN040
     FM300200 19010KT P6SM SCT040=

USA.gov is the U.S. government's official web portal to all federal, state and local government web resources and services.